createdAt,value
2019-05-04T00:02:07.351Z,59.70
2019-05-04T00:04:38.289Z,59.40
2019-05-04T00:07:06.723Z,59.20
2019-05-04T00:09:35.407Z,59.50
2019-05-04T00:12:04.782Z,60.10
2019-05-04T00:14:35.036Z,60.10
2019-05-04T00:17:05.353Z,60.00
2019-05-04T00:19:35.171Z,59.70
2019-05-04T00:22:04.945Z,59.50
2019-05-04T00:24:35.190Z,59.20
2019-05-04T00:27:04.692Z,59.40
2019-05-04T00:29:35.263Z,59.50
2019-05-04T00:32:05.084Z,59.60
2019-05-04T00:34:38.039Z,59.90
2019-05-04T00:37:08.404Z,59.20
2019-05-04T00:39:37.647Z,58.70
2019-05-04T00:42:06.725Z,59.10
2019-05-04T00:44:35.208Z,59.10
2019-05-04T00:47:05.009Z,58.10
2019-05-04T00:49:34.758Z,57.80
2019-05-04T00:52:05.647Z,57.70
2019-05-04T00:54:35.570Z,57.80
2019-05-04T00:57:05.151Z,58.00
2019-05-04T00:59:34.957Z,58.50
2019-05-04T01:02:06.067Z,59.10
2019-05-04T01:04:36.140Z,58.80
2019-05-04T01:07:17.703Z,59.40
2019-05-04T01:09:36.858Z,59.40
2019-05-04T01:12:05.944Z,59.20
2019-05-04T01:14:35.117Z,59.10
2019-05-04T01:17:05.415Z,59.20
2019-05-04T01:19:35.591Z,60.00
2019-05-04T01:22:05.235Z,60.40
2019-05-04T01:24:34.791Z,60.30
2019-05-04T01:27:05.712Z,60.20
2019-05-04T01:29:35.382Z,60.50
2019-05-04T01:32:05.263Z,60.60
2019-05-04T01:34:40.880Z,60.80
2019-05-04T01:37:32.552Z,61.00
2019-05-04T01:40:01.631Z,61.10
2019-05-04T01:42:30.355Z,61.50
2019-05-04T01:44:58.816Z,61.80
2019-05-04T01:47:27.508Z,62.00
2019-05-04T01:49:55.913Z,62.30
2019-05-04T01:52:25.711Z,62.60
2019-05-04T01:54:54.865Z,63.00
2019-05-04T01:57:35.194Z,63.10
2019-05-04T02:00:07.544Z,62.80
2019-05-04T02:02:35.989Z,63.20
2019-05-04T02:05:06.949Z,63.70
2019-05-04T02:07:44.641Z,63.80
2019-05-04T02:10:06.313Z,64.40
2019-05-04T02:12:35.275Z,65.00
2019-05-04T02:15:05.687Z,65.20
2019-05-04T02:17:34.837Z,64.60
2019-05-04T02:20:05.642Z,64.60
2019-05-04T02:22:38.963Z,64.90
2019-05-04T02:25:10.271Z,64.90
2019-05-04T02:27:40.324Z,65.10
2019-05-04T02:30:16.551Z,65.40
2019-05-04T02:32:46.565Z,65.30
2019-05-04T02:35:16.717Z,65.60
2019-05-04T02:38:03.155Z,65.30
2019-05-04T02:40:33.031Z,65.50
2019-05-04T02:42:57.935Z,66.00
2019-05-04T02:45:26.749Z,66.50
2019-05-04T02:47:57.219Z,66.70
2019-05-04T02:50:35.751Z,66.80
2019-05-04T02:53:05.163Z,67.00
2019-05-04T02:55:35.907Z,67.20
2019-05-04T02:58:05.963Z,67.80
2019-05-04T03:00:36.400Z,68.20
2019-05-04T03:03:07.782Z,68.80
2019-05-04T03:05:36.205Z,69.20
2019-05-04T03:08:05.541Z,69.60
2019-05-04T03:10:36.332Z,69.80
2019-05-04T03:13:06.487Z,70.40
2019-05-04T03:15:36.447Z,70.30
2019-05-04T03:18:19.246Z,70.30
2019-05-04T03:21:06.220Z,70.80
2019-05-04T03:23:36.764Z,71.50
2019-05-04T03:26:05.317Z,72.20
2019-05-04T03:28:35.891Z,71.60
2019-05-04T03:31:08.692Z,71.60
2019-05-04T03:33:38.167Z,71.60
2019-05-04T03:36:14.112Z,72.20
2019-05-04T03:38:49.610Z,72.20
2019-05-04T03:41:07.981Z,72.20
2019-05-04T03:43:36.477Z,71.80
2019-05-04T03:46:07.646Z,72.30
2019-05-04T03:48:40.440Z,72.90
2019-05-04T03:51:15.502Z,73.60
2019-05-04T03:53:45.715Z,74.10
2019-05-04T03:56:16.406Z,73.90
2019-05-04T03:58:46.755Z,74.10
2019-05-04T04:01:16.098Z,74.70
2019-05-04T04:03:46.173Z,74.70
2019-05-04T04:06:16.042Z,74.70
2019-05-04T04:08:47.156Z,74.90
2019-05-04T04:11:15.728Z,74.80
2019-05-04T04:13:45.439Z,74.80
2019-05-04T04:16:15.721Z,74.80
2019-05-04T04:18:45.570Z,75.30
2019-05-04T04:21:15.507Z,75.30
2019-05-04T04:23:56.268Z,75.40
2019-05-04T04:26:26.990Z,75.20
2019-05-04T04:28:57.498Z,75.70
2019-05-04T04:31:26.404Z,75.80
2019-05-04T04:34:00.681Z,76.20
2019-05-04T04:36:25.867Z,76.60
2019-05-04T04:38:56.536Z,76.80
2019-05-04T04:41:25.777Z,76.30
2019-05-04T04:43:56.278Z,74.60
2019-05-04T04:46:25.962Z,74.70
2019-05-04T04:48:55.555Z,75.00
2019-05-04T04:51:26.432Z,74.70
2019-05-04T04:53:56.355Z,74.70
2019-05-04T04:56:26.815Z,74.20
2019-05-04T04:59:15.076Z,73.40
2019-05-04T05:01:47.886Z,73.40
2019-05-04T05:04:15.084Z,73.20
2019-05-04T05:06:46.594Z,73.50
2019-05-04T05:09:15.290Z,73.30
2019-05-04T05:11:45.492Z,73.70
2019-05-04T05:14:14.387Z,73.80
2019-05-04T05:16:44.731Z,73.30
2019-05-04T05:19:15.150Z,73.00
2019-05-04T05:21:44.830Z,73.30
2019-05-04T05:24:14.868Z,73.40
2019-05-04T05:26:45.214Z,73.10
2019-05-04T05:29:15.162Z,73.30
2019-05-04T05:31:51.204Z,73.60
2019-05-04T05:34:21.266Z,74.20
2019-05-04T05:36:51.548Z,75.00
2019-05-04T05:39:19.985Z,75.40
2019-05-04T05:41:49.867Z,75.40
2019-05-04T05:44:19.273Z,75.30
2019-05-04T05:46:49.491Z,75.60
2019-05-04T05:49:32.295Z,75.50
2019-05-04T05:52:17.644Z,75.90
2019-05-04T05:54:54.498Z,76.00
2019-05-04T05:57:41.763Z,75.90
2019-05-04T06:00:12.308Z,76.30
2019-05-04T06:02:59.003Z,75.20
2019-05-04T06:05:31.117Z,76.20
2019-05-04T06:08:05.534Z,76.00
2019-05-04T06:10:35.211Z,76.10
2019-05-04T06:13:06.035Z,75.10
2019-05-04T06:15:55.583Z,75.10
2019-05-04T06:18:42.269Z,75.70
2019-05-04T06:21:24.719Z,75.60
2019-05-04T06:23:58.083Z,75.50
2019-05-04T06:26:30.950Z,75.30
2019-05-04T06:29:08.466Z,75.20
2019-05-04T06:31:46.855Z,74.00
2019-05-04T06:34:14.242Z,74.40
2019-05-04T06:37:04.736Z,73.90
2019-05-04T06:39:34.897Z,74.50
2019-05-04T06:42:06.874Z,75.00
2019-05-04T06:44:52.090Z,75.10
2019-05-04T06:47:16.140Z,75.60
2019-05-04T06:49:46.736Z,75.30
2019-05-04T06:52:18.366Z,74.70
2019-05-04T06:54:52.858Z,75.00
2019-05-04T06:57:43.897Z,75.00
2019-05-04T07:00:13.105Z,75.20
2019-05-04T07:02:41.282Z,74.30
2019-05-04T07:05:11.428Z,74.70
2019-05-04T07:07:40.788Z,74.50
2019-05-04T07:10:10.206Z,74.00
2019-05-04T07:12:40.810Z,74.30
2019-05-04T07:15:14.591Z,75.10
2019-05-04T07:17:41.188Z,75.60
2019-05-04T07:20:10.248Z,75.10
2019-05-04T07:22:40.787Z,75.30
2019-05-04T07:25:14.854Z,74.90
2019-05-04T07:27:40.791Z,74.80
2019-05-04T07:30:09.840Z,74.90
2019-05-04T07:32:38.734Z,74.70
2019-05-04T07:35:07.412Z,74.60
2019-05-04T07:37:46.499Z,74.40
2019-05-04T07:40:33.142Z,73.90
2019-05-04T07:43:00.127Z,74.80
2019-05-04T07:45:30.610Z,74.40
2019-05-04T07:47:59.496Z,74.50
2019-05-04T07:50:29.391Z,75.70
2019-05-04T07:52:59.808Z,75.20
2019-05-04T07:55:28.001Z,74.80
2019-05-04T07:57:59.732Z,75.00
2019-05-04T08:00:26.657Z,75.10
2019-05-04T08:02:55.977Z,74.70
2019-05-04T08:05:29.286Z,74.90
2019-05-04T08:07:55.813Z,75.10
2019-05-04T08:10:28.712Z,75.80
2019-05-04T08:13:01.983Z,76.90
2019-05-04T08:15:29.537Z,76.20
2019-05-04T08:17:56.263Z,76.00
2019-05-04T08:20:25.288Z,76.20
2019-05-04T08:22:59.923Z,76.50
2019-05-04T08:25:25.096Z,75.60
2019-05-04T08:27:54.720Z,75.80
2019-05-04T08:30:25.043Z,75.80
2019-05-04T08:32:54.766Z,75.00
2019-05-04T08:35:29.129Z,73.40
2019-05-04T08:37:55.512Z,74.20
2019-05-04T08:40:25.035Z,73.90
2019-05-04T08:42:54.857Z,74.00
2019-05-04T08:45:25.314Z,73.70
2019-05-04T08:47:57.408Z,73.70
2019-05-04T08:50:26.373Z,73.40
2019-05-04T08:53:06.249Z,73.00
2019-05-04T08:55:46.646Z,71.80
2019-05-04T08:58:28.842Z,72.60
2019-05-04T09:00:57.222Z,71.30
2019-05-04T09:03:26.668Z,72.20
2019-05-04T09:06:11.623Z,72.20
2019-05-04T09:08:26.219Z,69.90
2019-05-04T09:11:08.851Z,69.00
2019-05-04T09:13:26.576Z,70.60
2019-05-04T09:15:59.403Z,69.40
2019-05-04T09:18:29.452Z,69.90
2019-05-04T09:20:57.910Z,71.00
2019-05-04T09:23:28.197Z,70.10
2019-05-04T09:25:57.270Z,70.20
2019-05-04T09:28:26.627Z,69.00
2019-05-04T09:31:01.526Z,68.60
2019-05-04T09:33:32.275Z,67.40
2019-05-04T09:36:03.493Z,68.70
2019-05-04T09:38:27.135Z,69.70
2019-05-04T09:40:58.040Z,68.30
2019-05-04T09:43:34.620Z,69.90
2019-05-04T09:46:00.155Z,68.60
2019-05-04T09:48:27.141Z,68.30
2019-05-04T09:50:57.525Z,66.50
2019-05-04T09:53:33.177Z,67.60
2019-05-04T09:55:56.058Z,65.90
2019-05-04T09:58:26.515Z,66.20
2019-05-04T10:00:56.510Z,66.20
2019-05-04T10:03:26.219Z,66.60
2019-05-04T10:05:55.647Z,65.60
2019-05-04T10:08:25.354Z,65.00
2019-05-04T10:10:55.658Z,64.50
2019-05-04T10:13:27.278Z,65.00
2019-05-04T10:16:15.155Z,65.80
2019-05-04T10:18:45.556Z,64.80
2019-05-04T10:21:14.605Z,65.40
2019-05-04T10:23:45.048Z,65.90
2019-05-04T10:26:25.241Z,66.70
2019-05-04T10:28:58.246Z,66.40
2019-05-04T10:31:26.665Z,64.50
2019-05-04T10:33:55.743Z,64.60
2019-05-04T10:36:24.806Z,63.40
2019-05-04T10:38:54.834Z,64.80
2019-05-04T10:41:24.984Z,65.70
2019-05-04T10:43:55.076Z,64.80
2019-05-04T10:46:25.226Z,64.20
2019-05-04T10:48:54.348Z,65.10
2019-05-04T10:51:25.363Z,65.00
2019-05-04T10:53:54.378Z,65.00
2019-05-04T10:56:24.947Z,65.50
2019-05-04T10:58:54.399Z,66.20
2019-05-04T11:01:25.160Z,66.70
2019-05-04T11:03:54.810Z,65.80
2019-05-04T11:06:24.743Z,65.30
2019-05-04T11:08:54.542Z,64.80
2019-05-04T11:11:25.947Z,64.70
2019-05-04T11:14:02.762Z,64.60
2019-05-04T11:16:24.579Z,63.30
2019-05-04T11:18:54.632Z,62.80
2019-05-04T11:21:24.864Z,63.40
2019-05-04T11:23:55.133Z,63.20
2019-05-04T11:26:37.925Z,62.70
2019-05-04T11:29:06.400Z,63.50
2019-05-04T11:31:35.125Z,64.30
2019-05-04T11:34:05.085Z,62.40
2019-05-04T11:36:35.364Z,61.50
2019-05-04T11:39:06.694Z,61.00
2019-05-04T11:41:35.384Z,61.20
2019-05-04T11:44:04.761Z,61.30
2019-05-04T11:46:34.826Z,60.90
2019-05-04T11:49:04.596Z,59.00
2019-05-04T11:51:34.733Z,59.80
2019-05-04T11:54:04.886Z,58.60
2019-05-04T11:56:34.906Z,57.60
2019-05-04T11:59:05.467Z,58.30
2019-05-04T12:01:34.512Z,56.40
2019-05-04T12:04:07.403Z,57.30
2019-05-04T12:06:44.609Z,57.20
2019-05-04T12:09:24.327Z,57.20
2019-05-04T12:11:54.304Z,56.80
2019-05-04T12:14:25.169Z,56.40
2019-05-04T12:16:54.678Z,56.90
2019-05-04T12:19:24.493Z,55.70
2019-05-04T12:21:55.207Z,55.40
2019-05-04T12:24:24.913Z,55.10
2019-05-04T12:26:55.112Z,54.80
2019-05-04T12:29:24.522Z,54.90
2019-05-04T12:31:54.901Z,55.60
2019-05-04T12:34:25.181Z,56.40
2019-05-04T12:36:55.019Z,56.20
2019-05-04T12:39:24.790Z,54.30
2019-05-04T12:41:54.264Z,55.00
2019-05-04T12:44:24.603Z,54.40
2019-05-04T12:46:55.323Z,54.60
2019-05-04T12:49:25.776Z,55.30
2019-05-04T12:51:55.357Z,55.10
2019-05-04T12:54:24.887Z,55.50
2019-05-04T12:56:55.325Z,55.00
2019-05-04T12:59:25.867Z,54.80
2019-05-04T13:01:54.634Z,54.60
2019-05-04T13:04:24.396Z,55.10
2019-05-04T13:06:55.278Z,54.00
2019-05-04T13:09:24.290Z,54.30
2019-05-04T13:11:54.839Z,54.50
2019-05-04T13:14:25.183Z,54.10
2019-05-04T13:16:54.387Z,54.00
2019-05-04T13:19:22.795Z,53.60
2019-05-04T13:21:51.571Z,53.20
2019-05-04T13:24:20.006Z,52.60
2019-05-04T13:26:49.021Z,53.80
2019-05-04T13:29:17.443Z,54.70
2019-05-04T13:31:46.143Z,53.80
2019-05-04T13:34:14.878Z,54.30
2019-05-04T13:36:45.151Z,53.00
2019-05-04T13:39:15.308Z,53.40
2019-05-04T13:41:44.880Z,51.60
2019-05-04T13:44:22.127Z,51.50
2019-05-04T13:46:44.562Z,52.30
2019-05-04T13:49:14.706Z,53.40
2019-05-04T13:51:45.269Z,52.80
2019-05-04T13:54:15.711Z,51.60
2019-05-04T13:56:45.761Z,51.50
2019-05-04T13:59:16.218Z,52.10
2019-05-04T14:01:49.149Z,52.10
2019-05-04T14:04:22.342Z,52.90
2019-05-04T14:06:51.517Z,53.70
2019-05-04T14:09:21.675Z,53.80
2019-05-04T14:11:50.078Z,54.30
2019-05-04T14:14:18.800Z,54.20
2019-05-04T14:16:47.515Z,54.90
2019-05-04T14:19:16.340Z,56.10
2019-05-04T14:21:45.079Z,57.80
2019-05-04T14:24:14.561Z,59.90
2019-05-04T14:26:44.447Z,62.30
2019-05-04T14:29:15.993Z,64.00
2019-05-04T14:31:45.625Z,65.00
2019-05-04T14:34:15.155Z,65.90
2019-05-04T14:36:45.315Z,65.70
2019-05-04T14:39:14.810Z,64.90
2019-05-04T14:41:44.523Z,65.30
2019-05-04T14:44:15.665Z,66.10
2019-05-04T14:46:55.488Z,66.20
2019-05-04T14:49:24.992Z,66.40
2019-05-04T14:51:54.294Z,64.50
2019-05-04T14:54:22.757Z,65.60
2019-05-04T14:56:51.187Z,65.60
2019-05-04T14:59:19.851Z,65.50
2019-05-04T15:01:48.514Z,64.00
2019-05-04T15:04:16.918Z,63.60
2019-05-04T15:06:45.359Z,62.90
2019-05-04T15:09:14.897Z,61.60
2019-05-04T15:11:45.168Z,61.30
2019-05-04T15:14:14.082Z,60.60
2019-05-04T15:16:42.981Z,59.30
2019-05-04T15:19:14.588Z,59.90
2019-05-04T15:21:44.531Z,59.70
2019-05-04T15:24:14.338Z,56.90
2019-05-04T15:26:44.799Z,55.00
2019-05-04T15:29:14.007Z,55.70
2019-05-04T15:31:44.574Z,54.50
2019-05-04T15:34:14.580Z,56.20
2019-05-04T15:36:44.779Z,54.10
2019-05-04T15:39:15.091Z,52.70
2019-05-04T15:41:44.303Z,53.80
2019-05-04T15:44:14.742Z,53.30
2019-05-04T15:46:44.467Z,53.10
2019-05-04T15:49:14.986Z,54.10
2019-05-04T15:51:47.811Z,54.10
2019-05-04T15:54:20.959Z,54.40
2019-05-04T15:56:57.242Z,55.20
2019-05-04T15:59:34.366Z,55.80
2019-05-04T16:02:04.256Z,52.40
2019-05-04T16:04:34.727Z,52.10
2019-05-04T16:07:05.041Z,52.30
2019-05-04T16:09:35.452Z,54.00
2019-05-04T16:12:04.406Z,54.30
2019-05-04T16:14:46.082Z,52.50
2019-05-04T16:17:04.765Z,53.30
2019-05-04T16:19:34.795Z,52.10
2019-05-04T16:22:04.293Z,52.20
2019-05-04T16:24:34.514Z,51.40
2019-05-04T16:27:04.098Z,51.10
2019-05-04T16:29:34.448Z,51.90
2019-05-04T16:32:05.020Z,50.90
2019-05-04T16:34:33.565Z,50.60
2019-05-04T16:37:02.085Z,50.50
2019-05-04T16:39:31.242Z,51.70
2019-05-04T16:41:59.656Z,50.80
2019-05-04T16:44:28.365Z,51.30
2019-05-04T16:46:56.832Z,52.60
2019-05-04T16:49:25.234Z,51.80
2019-05-04T16:51:57.999Z,51.70
2019-05-04T16:54:26.623Z,53.10
2019-05-04T16:56:55.395Z,53.40
2019-05-04T16:59:25.406Z,53.40
2019-05-04T17:01:55.595Z,53.30
2019-05-04T17:04:28.452Z,53.80
2019-05-04T17:06:57.171Z,52.60
2019-05-04T17:09:25.864Z,53.40
2019-05-04T17:11:55.393Z,52.80
2019-05-04T17:14:25.177Z,52.90
2019-05-04T17:16:54.973Z,53.60
2019-05-04T17:19:24.946Z,53.30
2019-05-04T17:22:07.971Z,52.10
2019-05-04T17:24:39.353Z,51.90
2019-05-04T17:27:12.441Z,52.30
2019-05-04T17:29:41.127Z,52.50
2019-05-04T17:32:09.916Z,51.80
2019-05-04T17:34:41.688Z,54.00
2019-05-04T17:37:12.102Z,55.90
2019-05-04T17:39:40.881Z,57.10
2019-05-04T17:42:14.111Z,58.50
2019-05-04T17:44:45.215Z,59.60
2019-05-04T17:47:14.173Z,57.30
2019-05-04T17:49:44.817Z,57.20
2019-05-04T17:52:15.142Z,58.20
2019-05-04T17:54:43.646Z,58.40
2019-05-04T17:57:14.601Z,59.70
2019-05-04T18:00:00.885Z,59.70
2019-05-04T18:02:31.199Z,59.60
2019-05-04T18:05:01.495Z,60.00
2019-05-04T18:07:30.190Z,59.60
2019-05-04T18:09:58.627Z,59.60
2019-05-04T18:12:29.021Z,60.80
2019-05-04T18:14:59.377Z,61.10
2019-05-04T18:17:48.004Z,61.70
2019-05-04T18:20:17.102Z,61.30
2019-05-04T18:22:45.676Z,62.00
2019-05-04T18:25:14.264Z,62.40
2019-05-04T18:27:42.705Z,62.50
2019-05-04T18:30:11.848Z,64.00
2019-05-04T18:32:40.267Z,64.70
2019-05-04T18:35:09.053Z,66.10
2019-05-04T18:37:37.460Z,66.70
2019-05-04T18:40:06.699Z,67.60
2019-05-04T18:42:36.752Z,67.80
2019-05-04T18:45:16.508Z,68.30
2019-05-04T18:48:04.200Z,68.20
2019-05-04T18:50:34.761Z,67.90
2019-05-04T18:53:05.219Z,68.00
2019-05-04T18:55:33.595Z,68.70
2019-05-04T18:58:05.171Z,69.00
2019-05-04T19:00:35.128Z,68.90
2019-05-04T19:03:06.963Z,68.90
2019-05-04T19:05:37.311Z,69.80
2019-05-04T19:08:07.603Z,70.00
2019-05-04T19:10:37.328Z,69.90
2019-05-04T19:13:06.257Z,70.00
2019-05-04T19:15:35.033Z,70.10
2019-05-04T19:18:04.603Z,70.20
2019-05-04T19:20:33.359Z,70.40
2019-05-04T19:23:01.828Z,70.30
2019-05-04T19:25:30.368Z,70.40
2019-05-04T19:27:59.123Z,70.10
2019-05-04T19:30:28.197Z,70.20
2019-05-04T19:32:56.738Z,70.40
2019-05-04T19:35:25.606Z,70.40
2019-05-04T19:37:56.540Z,70.10
2019-05-04T19:40:35.468Z,70.40
2019-05-04T19:43:08.848Z,70.20
2019-05-04T19:45:39.553Z,70.40
2019-05-04T19:48:09.597Z,71.30
2019-05-04T19:50:39.168Z,71.10
2019-05-04T19:53:07.682Z,71.30
2019-05-04T19:55:36.159Z,70.80
2019-05-04T19:58:04.976Z,70.60
2019-05-04T20:00:39.068Z,70.90
2019-05-04T20:03:07.447Z,71.10
2019-05-04T20:05:35.923Z,71.00
2019-05-04T20:08:06.419Z,71.00
2019-05-04T20:10:52.394Z,70.60
2019-05-04T20:13:21.153Z,70.40
2019-05-04T20:15:49.698Z,70.10
2019-05-04T20:18:18.114Z,70.00
2019-05-04T20:20:46.654Z,69.80
2019-05-04T20:23:15.138Z,69.90
2019-05-04T20:25:43.574Z,69.80
2019-05-04T20:28:12.297Z,69.70
2019-05-04T20:30:40.925Z,69.50
2019-05-04T20:33:09.701Z,69.60
2019-05-04T20:35:38.136Z,69.70
2019-05-04T20:38:06.547Z,69.40
2019-05-04T20:40:35.105Z,70.50
2019-05-04T20:43:04.563Z,70.30
2019-05-04T20:45:35.234Z,70.10
2019-05-04T20:48:05.916Z,69.60
2019-05-04T20:50:35.248Z,70.00
2019-05-04T20:53:21.108Z,69.80
2019-05-04T20:55:51.070Z,70.10
2019-05-04T20:58:19.505Z,70.00
2019-05-04T21:00:48.158Z,69.90
2019-05-04T21:03:34.787Z,69.80
2019-05-04T21:06:14.766Z,69.60
2019-05-04T21:08:44.684Z,69.20
2019-05-04T21:11:14.785Z,69.70
2019-05-04T21:13:44.598Z,69.80
2019-05-04T21:16:14.872Z,69.70
2019-05-04T21:18:48.600Z,69.40
2019-05-04T21:21:19.037Z,69.40
2019-05-04T21:23:47.737Z,69.40
2019-05-04T21:26:16.169Z,69.40
2019-05-04T21:28:44.897Z,69.20
2019-05-04T21:31:14.989Z,69.70
2019-05-04T21:33:44.600Z,70.00
2019-05-04T21:36:14.976Z,70.10
2019-05-04T21:38:45.437Z,70.00
2019-05-04T21:41:14.600Z,69.70
2019-05-04T21:43:44.873Z,69.90
2019-05-04T21:46:14.915Z,70.00
2019-05-04T21:49:00.316Z,70.30
2019-05-04T21:51:28.953Z,69.90
2019-05-04T21:53:57.688Z,70.30
2019-05-04T21:56:26.309Z,70.40
2019-05-04T21:58:55.126Z,70.70
2019-05-04T22:01:38.069Z,70.70
2019-05-04T22:04:11.087Z,70.50
2019-05-04T22:06:39.964Z,70.00
2019-05-04T22:09:08.665Z,70.00
2019-05-04T22:11:37.165Z,70.10
2019-05-04T22:14:05.845Z,70.30
2019-05-04T22:16:34.928Z,70.30
2019-05-04T22:19:05.274Z,70.30
2019-05-04T22:21:34.593Z,70.30
2019-05-04T22:24:03.342Z,70.20
2019-05-04T22:26:32.079Z,70.50
2019-05-04T22:29:00.497Z,70.40
2019-05-04T22:31:28.946Z,70.10
2019-05-04T22:33:57.413Z,69.90
2019-05-04T22:36:27.445Z,69.90
2019-05-04T22:38:55.879Z,70.10
2019-05-04T22:41:24.869Z,70.10
2019-05-04T22:43:53.300Z,70.30
2019-05-04T22:46:24.123Z,70.60
2019-05-04T22:48:54.433Z,70.30
2019-05-04T22:51:25.030Z,70.70
2019-05-04T22:53:58.126Z,70.70
2019-05-04T22:56:26.535Z,70.40
2019-05-04T22:58:56.605Z,70.30
2019-05-04T23:01:27.214Z,70.50
2019-05-04T23:04:06.457Z,70.50
2019-05-04T23:06:35.465Z,70.30
2019-05-04T23:09:04.970Z,70.40
2019-05-04T23:11:36.031Z,70.60
2019-05-04T23:14:04.620Z,70.40
2019-05-04T23:16:35.727Z,70.70
2019-05-04T23:19:05.858Z,70.50
2019-05-04T23:21:36.630Z,70.50
2019-05-04T23:24:05.359Z,70.80
2019-05-04T23:26:34.823Z,70.80
2019-05-04T23:29:06.066Z,70.20
2019-05-04T23:31:34.828Z,70.40
2019-05-04T23:34:04.633Z,70.30
2019-05-04T23:36:34.879Z,70.40
2019-05-04T23:39:04.709Z,70.70
2019-05-04T23:41:35.349Z,70.70
2019-05-04T23:44:04.471Z,70.80
2019-05-04T23:46:35.780Z,70.70
2019-05-04T23:49:15.980Z,70.40
2019-05-04T23:51:36.249Z,70.10
2019-05-04T23:54:05.593Z,70.30
2019-05-04T23:56:34.868Z,70.40
2019-05-04T23:59:05.479Z,70.40
